sensor_id;sensor_type;location;lat;lon;timestamp;temperature;humidity
33881;DHT22;20172;47.530;10.256;2023-05-23T00:01:33;16.80;99.90
33881;DHT22;20172;47.530;10.256;2023-05-23T00:04:02;16.80;99.90
33881;DHT22;20172;47.530;10.256;2023-05-23T00:06:28;16.70;99.90
33881;DHT22;20172;47.530;10.256;2023-05-23T00:08:53;16.80;99.90
33881;DHT22;20172;47.530;10.256;2023-05-23T00:11:19;16.80;99.90
33881;DHT22;20172;47.530;10.256;2023-05-23T00:13:48;16.90;99.90
33881;DHT22;20172;47.530;10.256;2023-05-23T00:16:15;16.90;99.90
33881;DHT22;20172;47.530;10.256;2023-05-23T00:18:41;16.90;99.90
33881;DHT22;20172;47.530;10.256;2023-05-23T00:21:07;16.90;99.90
33881;DHT22;20172;47.530;10.256;2023-05-23T00:23:34;16.90;99.90
33881;DHT22;20172;47.530;10.256;2023-05-23T00:25:59;17.00;99.90
33881;DHT22;20172;47.530;10.256;2023-05-23T00:28:25;17.00;99.90
33881;DHT22;20172;47.530;10.256;2023-05-23T00:30:50;16.90;99.90
33881;DHT22;20172;47.530;10.256;2023-05-23T00:33:16;16.90;99.90
33881;DHT22;20172;47.530;10.256;2023-05-23T00:35:46;16.80;99.90
33881;DHT22;20172;47.530;10.256;2023-05-23T00:38:12;16.80;99.90
33881;DHT22;20172;47.530;10.256;2023-05-23T00:40:38;16.80;99.90
33881;DHT22;20172;47.530;10.256;2023-05-23T00:43:04;16.70;99.90
33881;DHT22;20172;47.530;10.256;2023-05-23T00:45:30;16.70;99.90
33881;DHT22;20172;47.530;10.256;2023-05-23T00:47:55;16.70;99.90
33881;DHT22;20172;47.530;10.256;2023-05-23T00:50:23;16.80;99.90
33881;DHT22;20172;47.530;10.256;2023-05-23T00:52:48;16.80;99.90
33881;DHT22;20172;47.530;10.256;2023-05-23T00:55:14;16.90;99.90
33881;DHT22;20172;47.530;10.256;2023-05-23T00:57:40;16.90;99.90
33881;DHT22;20172;47.530;10.256;2023-05-23T01:00:11;16.90;99.90
33881;DHT22;20172;47.530;10.256;2023-05-23T01:02:39;16.90;99.90
33881;DHT22;20172;47.530;10.256;2023-05-23T01:05:08;16.90;99.90
33881;DHT22;20172;47.530;10.256;2023-05-23T01:07:34;17.00;99.90
33881;DHT22;20172;47.530;10.256;2023-05-23T01:10:00;17.00;99.90
33881;DHT22;20172;47.530;10.256;2023-05-23T01:17:23;17.10;99.90
33881;DHT22;20172;47.530;10.256;2023-05-23T01:19:58;17.10;99.90
33881;DHT22;20172;47.530;10.256;2023-05-23T01:24:54;17.00;99.90
33881;DHT22;20172;47.530;10.256;2023-05-23T01:30:06;17.00;99.90
33881;DHT22;20172;47.530;10.256;2023-05-23T01:32:32;17.00;99.90
33881;DHT22;20172;47.530;10.256;2023-05-23T01:34:58;17.00;99.90
33881;DHT22;20172;47.530;10.256;2023-05-23T01:37:24;17.00;99.90
33881;DHT22;20172;47.530;10.256;2023-05-23T01:39:49;16.90;99.90
33881;DHT22;20172;47.530;10.256;2023-05-23T01:42:15;16.90;99.90
33881;DHT22;20172;47.530;10.256;2023-05-23T01:44:40;16.80;99.90
33881;DHT22;20172;47.530;10.256;2023-05-23T01:47:07;16.90;99.90
33881;DHT22;20172;47.530;10.256;2023-05-23T01:49:34;16.80;99.90
33881;DHT22;20172;47.530;10.256;2023-05-23T01:52:01;16.80;99.90
33881;DHT22;20172;47.530;10.256;2023-05-23T01:54:27;16.70;99.90
33881;DHT22;20172;47.530;10.256;2023-05-23T01:56:54;16.60;99.90
33881;DHT22;20172;47.530;10.256;2023-05-23T01:59:20;16.60;99.90
33881;DHT22;20172;47.530;10.256;2023-05-23T02:01:46;16.50;99.90
33881;DHT22;20172;47.530;10.256;2023-05-23T02:04:12;16.50;99.90
33881;DHT22;20172;47.530;10.256;2023-05-23T02:06:39;16.40;99.90
33881;DHT22;20172;47.530;10.256;2023-05-23T02:09:05;16.40;99.90
33881;DHT22;20172;47.530;10.256;2023-05-23T02:11:31;16.40;99.90
33881;DHT22;20172;47.530;10.256;2023-05-23T02:13:57;16.40;99.90
33881;DHT22;20172;47.530;10.256;2023-05-23T02:16:22;16.40;99.90
33881;DHT22;20172;47.530;10.256;2023-05-23T02:18:50;16.50;99.90
33881;DHT22;20172;47.530;10.256;2023-05-23T02:21:17;16.60;99.90
33881;DHT22;20172;47.530;10.256;2023-05-23T02:23:42;16.60;99.90
33881;DHT22;20172;47.530;10.256;2023-05-23T02:26:08;16.60;99.90
33881;DHT22;20172;47.530;10.256;2023-05-23T02:28:33;16.60;99.90
33881;DHT22;20172;47.530;10.256;2023-05-23T02:30:59;16.70;99.90
33881;DHT22;20172;47.530;10.256;2023-05-23T02:33:24;16.80;99.90
33881;DHT22;20172;47.530;10.256;2023-05-23T02:35:50;16.80;99.90
33881;DHT22;20172;47.530;10.256;2023-05-23T02:38:15;16.90;99.90
33881;DHT22;20172;47.530;10.256;2023-05-23T02:40:41;17.00;99.90
33881;DHT22;20172;47.530;10.256;2023-05-23T02:43:07;17.00;99.90
33881;DHT22;20172;47.530;10.256;2023-05-23T02:45:32;17.00;99.90
33881;DHT22;20172;47.530;10.256;2023-05-23T02:47:58;17.00;99.90
33881;DHT22;20172;47.530;10.256;2023-05-23T02:50:23;17.00;99.90
33881;DHT22;20172;47.530;10.256;2023-05-23T02:52:49;17.10;99.90
33881;DHT22;20172;47.530;10.256;2023-05-23T02:55:15;16.90;99.90
33881;DHT22;20172;47.530;10.256;2023-05-23T02:57:40;16.80;99.90
33881;DHT22;20172;47.530;10.256;2023-05-23T03:00:06;16.80;99.90
33881;DHT22;20172;47.530;10.256;2023-05-23T03:02:34;16.80;99.90
33881;DHT22;20172;47.530;10.256;2023-05-23T03:04:59;16.80;99.90
33881;DHT22;20172;47.530;10.256;2023-05-23T03:07:25;16.80;99.90
33881;DHT22;20172;47.530;10.256;2023-05-23T03:09:51;16.90;99.90
33881;DHT22;20172;47.530;10.256;2023-05-23T03:12:16;16.90;99.90
33881;DHT22;20172;47.530;10.256;2023-05-23T03:14:42;16.90;99.90
33881;DHT22;20172;47.530;10.256;2023-05-23T03:17:07;16.90;99.90
33881;DHT22;20172;47.530;10.256;2023-05-23T03:19:33;17.00;99.90
33881;DHT22;20172;47.530;10.256;2023-05-23T03:21:58;17.00;99.90
33881;DHT22;20172;47.530;10.256;2023-05-23T03:24:24;17.00;99.90
33881;DHT22;20172;47.530;10.256;2023-05-23T03:26:50;16.90;99.90
33881;DHT22;20172;47.530;10.256;2023-05-23T03:29:15;16.90;99.90
33881;DHT22;20172;47.530;10.256;2023-05-23T03:31:41;16.90;99.90
33881;DHT22;20172;47.530;10.256;2023-05-23T03:34:06;16.90;99.90
33881;DHT22;20172;47.530;10.256;2023-05-23T03:36:32;16.90;99.90
33881;DHT22;20172;47.530;10.256;2023-05-23T03:38:58;16.90;99.90
33881;DHT22;20172;47.530;10.256;2023-05-23T03:41:24;16.90;99.90
33881;DHT22;20172;47.530;10.256;2023-05-23T03:43:50;17.00;99.90
33881;DHT22;20172;47.530;10.256;2023-05-23T03:46:16;17.00;99.90
33881;DHT22;20172;47.530;10.256;2023-05-23T03:48:41;17.00;99.90
33881;DHT22;20172;47.530;10.256;2023-05-23T03:51:07;17.00;99.90
33881;DHT22;20172;47.530;10.256;2023-05-23T03:53:32;16.90;99.90
33881;DHT22;20172;47.530;10.256;2023-05-23T03:55:58;16.80;99.90
33881;DHT22;20172;47.530;10.256;2023-05-23T03:58:23;16.80;99.90
33881;DHT22;20172;47.530;10.256;2023-05-23T04:00:49;16.70;99.90
33881;DHT22;20172;47.530;10.256;2023-05-23T04:03:15;16.70;99.90
33881;DHT22;20172;47.530;10.256;2023-05-23T04:05:41;16.70;99.90
33881;DHT22;20172;47.530;10.256;2023-05-23T04:08:07;16.70;99.90
33881;DHT22;20172;47.530;10.256;2023-05-23T04:10:33;16.70;99.90
33881;DHT22;20172;47.530;10.256;2023-05-23T04:12:59;16.80;99.90
33881;DHT22;20172;47.530;10.256;2023-05-23T04:15:24;16.80;99.90
33881;DHT22;20172;47.530;10.256;2023-05-23T04:17:52;16.90;99.90
33881;DHT22;20172;47.530;10.256;2023-05-23T04:20:18;17.00;99.90
33881;DHT22;20172;47.530;10.256;2023-05-23T04:22:43;17.00;99.90
33881;DHT22;20172;47.530;10.256;2023-05-23T04:25:09;17.00;99.90
33881;DHT22;20172;47.530;10.256;2023-05-23T04:27:34;17.00;99.90
33881;DHT22;20172;47.530;10.256;2023-05-23T04:30:00;17.00;99.90
33881;DHT22;20172;47.530;10.256;2023-05-23T04:32:26;17.00;99.90
33881;DHT22;20172;47.530;10.256;2023-05-23T04:34:51;17.00;99.90
33881;DHT22;20172;47.530;10.256;2023-05-23T04:37:17;17.10;99.90
33881;DHT22;20172;47.530;10.256;2023-05-23T04:39:49;17.00;99.90
33881;DHT22;20172;47.530;10.256;2023-05-23T04:42:15;17.00;99.90
33881;DHT22;20172;47.530;10.256;2023-05-23T04:44:41;17.00;99.90
33881;DHT22;20172;47.530;10.256;2023-05-23T04:47:07;17.00;99.90
33881;DHT22;20172;47.530;10.256;2023-05-23T04:49:34;17.00;99.90
33881;DHT22;20172;47.530;10.256;2023-05-23T04:52:00;17.00;99.90
33881;DHT22;20172;47.530;10.256;2023-05-23T04:54:26;17.00;99.90
33881;DHT22;20172;47.530;10.256;2023-05-23T04:56:51;17.00;99.90
33881;DHT22;20172;47.530;10.256;2023-05-23T04:59:17;17.00;99.90
33881;DHT22;20172;47.530;10.256;2023-05-23T05:01:42;17.00;99.90
33881;DHT22;20172;47.530;10.256;2023-05-23T05:04:08;17.10;99.90
33881;DHT22;20172;47.530;10.256;2023-05-23T05:06:34;17.00;99.90
33881;DHT22;20172;47.530;10.256;2023-05-23T05:08:59;17.00;99.90
33881;DHT22;20172;47.530;10.256;2023-05-23T05:11:25;16.90;99.90
33881;DHT22;20172;47.530;10.256;2023-05-23T05:13:51;16.70;99.90
33881;DHT22;20172;47.530;10.256;2023-05-23T05:16:16;16.70;99.90
33881;DHT22;20172;47.530;10.256;2023-05-23T05:18:42;16.70;99.90
33881;DHT22;20172;47.530;10.256;2023-05-23T05:21:07;16.70;99.90
33881;DHT22;20172;47.530;10.256;2023-05-23T05:23:34;16.70;99.90
33881;DHT22;20172;47.530;10.256;2023-05-23T05:26:00;16.90;99.90
33881;DHT22;20172;47.530;10.256;2023-05-23T05:28:25;17.00;99.90
33881;DHT22;20172;47.530;10.256;2023-05-23T05:30:51;17.10;99.90
33881;DHT22;20172;47.530;10.256;2023-05-23T05:33:21;17.10;99.90
33881;DHT22;20172;47.530;10.256;2023-05-23T05:35:49;17.20;99.90
33881;DHT22;20172;47.530;10.256;2023-05-23T05:38:17;17.20;99.90
33881;DHT22;20172;47.530;10.256;2023-05-23T05:40:43;17.30;99.90
33881;DHT22;20172;47.530;10.256;2023-05-23T05:43:08;17.30;99.90
33881;DHT22;20172;47.530;10.256;2023-05-23T05:45:34;17.30;99.90
33881;DHT22;20172;47.530;10.256;2023-05-23T05:48:02;17.30;99.90
33881;DHT22;20172;47.530;10.256;2023-05-23T05:50:27;17.30;99.90
33881;DHT22;20172;47.530;10.256;2023-05-23T05:52:53;17.40;99.90
33881;DHT22;20172;47.530;10.256;2023-05-23T05:55:18;17.40;99.90
33881;DHT22;20172;47.530;10.256;2023-05-23T05:57:44;17.40;99.90
33881;DHT22;20172;47.530;10.256;2023-05-23T06:00:10;17.50;99.90
33881;DHT22;20172;47.530;10.256;2023-05-23T06:02:39;17.50;99.90
33881;DHT22;20172;47.530;10.256;2023-05-23T06:05:05;17.40;99.90
33881;DHT22;20172;47.530;10.256;2023-05-23T06:07:35;17.50;99.90
33881;DHT22;20172;47.530;10.256;2023-05-23T06:10:01;17.50;99.90
33881;DHT22;20172;47.530;10.256;2023-05-23T06:12:26;17.40;99.90
33881;DHT22;20172;47.530;10.256;2023-05-23T06:14:52;17.50;99.90
33881;DHT22;20172;47.530;10.256;2023-05-23T06:17:17;17.50;99.90
33881;DHT22;20172;47.530;10.256;2023-05-23T06:19:43;17.50;99.90
33881;DHT22;20172;47.530;10.256;2023-05-23T06:22:08;17.50;99.90
33881;DHT22;20172;47.530;10.256;2023-05-23T06:24:34;17.60;99.90
33881;DHT22;20172;47.530;10.256;2023-05-23T06:27:00;17.70;99.90
33881;DHT22;20172;47.530;10.256;2023-05-23T06:29:25;17.80;99.90
33881;DHT22;20172;47.530;10.256;2023-05-23T06:31:51;17.80;99.90
33881;DHT22;20172;47.530;10.256;2023-05-23T06:34:16;17.80;99.90
33881;DHT22;20172;47.530;10.256;2023-05-23T06:36:42;17.80;99.90
33881;DHT22;20172;47.530;10.256;2023-05-23T06:39:08;17.80;99.90
33881;DHT22;20172;47.530;10.256;2023-05-23T06:41:37;17.80;99.90
33881;DHT22;20172;47.530;10.256;2023-05-23T06:44:02;17.90;99.90
33881;DHT22;20172;47.530;10.256;2023-05-23T06:46:28;17.90;99.90
33881;DHT22;20172;47.530;10.256;2023-05-23T06:48:53;18.00;99.90
33881;DHT22;20172;47.530;10.256;2023-05-23T06:51:19;18.00;99.90
33881;DHT22;20172;47.530;10.256;2023-05-23T06:53:45;18.00;99.90
33881;DHT22;20172;47.530;10.256;2023-05-23T06:56:10;18.00;99.90
33881;DHT22;20172;47.530;10.256;2023-05-23T06:58:36;18.10;99.90
33881;DHT22;20172;47.530;10.256;2023-05-23T07:01:01;18.10;99.90
33881;DHT22;20172;47.530;10.256;2023-05-23T07:03:27;18.10;99.90
33881;DHT22;20172;47.530;10.256;2023-05-23T07:05:52;18.10;99.90
33881;DHT22;20172;47.530;10.256;2023-05-23T07:08:18;18.10;99.90
33881;DHT22;20172;47.530;10.256;2023-05-23T07:10:44;18.20;99.90
33881;DHT22;20172;47.530;10.256;2023-05-23T07:13:09;18.30;99.90
33881;DHT22;20172;47.530;10.256;2023-05-23T07:15:35;18.40;99.90
33881;DHT22;20172;47.530;10.256;2023-05-23T07:18:00;18.40;99.90
33881;DHT22;20172;47.530;10.256;2023-05-23T07:20:26;18.50;99.90
33881;DHT22;20172;47.530;10.256;2023-05-23T07:22:51;18.70;99.90
33881;DHT22;20172;47.530;10.256;2023-05-23T07:25:17;18.80;99.90
33881;DHT22;20172;47.530;10.256;2023-05-23T07:27:43;18.90;99.90
33881;DHT22;20172;47.530;10.256;2023-05-23T07:30:08;18.90;99.90
33881;DHT22;20172;47.530;10.256;2023-05-23T07:32:34;19.20;99.90
33881;DHT22;20172;47.530;10.256;2023-05-23T07:35:00;19.30;99.90
33881;DHT22;20172;47.530;10.256;2023-05-23T07:37:25;19.60;99.90
33881;DHT22;20172;47.530;10.256;2023-05-23T07:39:52;19.80;99.90
33881;DHT22;20172;47.530;10.256;2023-05-23T07:42:17;19.90;99.90
33881;DHT22;20172;47.530;10.256;2023-05-23T07:44:43;20.10;99.90
33881;DHT22;20172;47.530;10.256;2023-05-23T07:47:08;20.30;99.90
33881;DHT22;20172;47.530;10.256;2023-05-23T07:49:34;20.50;99.90
33881;DHT22;20172;47.530;10.256;2023-05-23T07:52:00;20.60;99.90
33881;DHT22;20172;47.530;10.256;2023-05-23T07:54:25;20.50;99.90
33881;DHT22;20172;47.530;10.256;2023-05-23T07:56:51;20.40;99.90
33881;DHT22;20172;47.530;10.256;2023-05-23T07:59:17;20.20;99.90
33881;DHT22;20172;47.530;10.256;2023-05-23T08:01:42;20.10;99.90
33881;DHT22;20172;47.530;10.256;2023-05-23T08:04:09;20.00;99.90
33881;DHT22;20172;47.530;10.256;2023-05-23T08:06:34;20.00;99.90
33881;DHT22;20172;47.530;10.256;2023-05-23T08:09:02;19.90;99.90
33881;DHT22;20172;47.530;10.256;2023-05-23T08:11:28;19.80;99.90
33881;DHT22;20172;47.530;10.256;2023-05-23T08:13:54;19.60;99.90
33881;DHT22;20172;47.530;10.256;2023-05-23T08:16:20;19.50;99.90
33881;DHT22;20172;47.530;10.256;2023-05-23T08:18:46;19.30;99.90
33881;DHT22;20172;47.530;10.256;2023-05-23T08:21:11;19.30;99.90
33881;DHT22;20172;47.530;10.256;2023-05-23T08:23:39;19.20;99.90
33881;DHT22;20172;47.530;10.256;2023-05-23T08:26:05;19.20;99.90
33881;DHT22;20172;47.530;10.256;2023-05-23T08:28:31;19.30;99.90
33881;DHT22;20172;47.530;10.256;2023-05-23T08:31:00;19.40;99.90
33881;DHT22;20172;47.530;10.256;2023-05-23T08:33:25;19.50;99.90
33881;DHT22;20172;47.530;10.256;2023-05-23T08:35:51;19.60;99.90
33881;DHT22;20172;47.530;10.256;2023-05-23T08:38:16;19.70;99.90
33881;DHT22;20172;47.530;10.256;2023-05-23T08:40:48;19.90;99.90
33881;DHT22;20172;47.530;10.256;2023-05-23T08:43:14;20.10;99.90
33881;DHT22;20172;47.530;10.256;2023-05-23T08:45:40;20.50;99.90
33881;DHT22;20172;47.530;10.256;2023-05-23T08:48:07;20.90;99.90
33881;DHT22;20172;47.530;10.256;2023-05-23T08:50:34;21.10;99.90
33881;DHT22;20172;47.530;10.256;2023-05-23T08:53:01;21.00;99.90
33881;DHT22;20172;47.530;10.256;2023-05-23T08:55:28;20.90;99.90
33881;DHT22;20172;47.530;10.256;2023-05-23T08:57:54;20.80;99.90
33881;DHT22;20172;47.530;10.256;2023-05-23T09:00:20;20.70;99.90
33881;DHT22;20172;47.530;10.256;2023-05-23T09:02:47;20.30;99.90
33881;DHT22;20172;47.530;10.256;2023-05-23T09:05:13;20.00;99.90
33881;DHT22;20172;47.530;10.256;2023-05-23T09:07:39;19.70;99.90
33881;DHT22;20172;47.530;10.256;2023-05-23T09:10:05;19.60;99.90
33881;DHT22;20172;47.530;10.256;2023-05-23T09:12:32;19.60;99.90
33881;DHT22;20172;47.530;10.256;2023-05-23T09:14:58;19.60;99.90
33881;DHT22;20172;47.530;10.256;2023-05-23T09:17:24;19.50;99.90
33881;DHT22;20172;47.530;10.256;2023-05-23T09:19:49;19.70;99.90
33881;DHT22;20172;47.530;10.256;2023-05-23T09:22:15;19.90;99.90
33881;DHT22;20172;47.530;10.256;2023-05-23T09:24:41;20.20;99.90
33881;DHT22;20172;47.530;10.256;2023-05-23T09:27:08;20.40;99.90
33881;DHT22;20172;47.530;10.256;2023-05-23T09:29:37;20.50;99.90
33881;DHT22;20172;47.530;10.256;2023-05-23T09:32:18;20.60;99.90
33881;DHT22;20172;47.530;10.256;2023-05-23T09:37:18;20.60;99.90
33881;DHT22;20172;47.530;10.256;2023-05-23T09:39:47;20.70;99.90
33881;DHT22;20172;47.530;10.256;2023-05-23T09:42:19;20.50;99.90
33881;DHT22;20172;47.530;10.256;2023-05-23T09:44:46;20.50;99.90
33881;DHT22;20172;47.530;10.256;2023-05-23T09:47:11;20.50;99.90
33881;DHT22;20172;47.530;10.256;2023-05-23T09:49:37;20.60;99.90
33881;DHT22;20172;47.530;10.256;2023-05-23T09:52:03;20.60;99.90
33881;DHT22;20172;47.530;10.256;2023-05-23T09:54:29;20.60;99.90
33881;DHT22;20172;47.530;10.256;2023-05-23T09:56:54;20.60;99.90
33881;DHT22;20172;47.530;10.256;2023-05-23T09:59:21;20.60;99.90
33881;DHT22;20172;47.530;10.256;2023-05-23T10:01:49;20.60;99.90
33881;DHT22;20172;47.530;10.256;2023-05-23T10:04:15;20.60;99.90
33881;DHT22;20172;47.530;10.256;2023-05-23T10:06:47;20.50;99.90
33881;DHT22;20172;47.530;10.256;2023-05-23T10:09:15;20.40;99.90
33881;DHT22;20172;47.530;10.256;2023-05-23T10:14:08;20.30;99.90
33881;DHT22;20172;47.530;10.256;2023-05-23T10:19:10;20.30;99.90
33881;DHT22;20172;47.530;10.256;2023-05-23T10:21:49;20.30;99.90
33881;DHT22;20172;47.530;10.256;2023-05-23T10:24:14;20.30;99.90
33881;DHT22;20172;47.530;10.256;2023-05-23T10:26:40;20.10;99.90
33881;DHT22;20172;47.530;10.256;2023-05-23T10:29:07;20.00;99.90
33881;DHT22;20172;47.530;10.256;2023-05-23T10:31:33;19.90;99.90
33881;DHT22;20172;47.530;10.256;2023-05-23T10:34:02;20.00;99.90
33881;DHT22;20172;47.530;10.256;2023-05-23T10:36:32;19.80;99.90
33881;DHT22;20172;47.530;10.256;2023-05-23T10:39:01;19.60;99.90
33881;DHT22;20172;47.530;10.256;2023-05-23T10:44:25;19.30;99.90
33881;DHT22;20172;47.530;10.256;2023-05-23T10:49:18;19.20;99.90
33881;DHT22;20172;47.530;10.256;2023-05-23T10:51:47;19.10;99.90
33881;DHT22;20172;47.530;10.256;2023-05-23T10:54:13;19.00;99.90
33881;DHT22;20172;47.530;10.256;2023-05-23T10:56:39;18.80;99.90
33881;DHT22;20172;47.530;10.256;2023-05-23T10:59:04;18.70;99.90
33881;DHT22;20172;47.530;10.256;2023-05-23T11:01:38;18.80;99.90
33881;DHT22;20172;47.530;10.256;2023-05-23T11:04:04;19.00;99.90
33881;DHT22;20172;47.530;10.256;2023-05-23T11:09:17;19.60;99.90
33881;DHT22;20172;47.530;10.256;2023-05-23T11:16:56;20.50;99.90
33881;DHT22;20172;47.530;10.256;2023-05-23T11:19:22;20.60;99.90
33881;DHT22;20172;47.530;10.256;2023-05-23T11:22:00;20.60;99.90
33881;DHT22;20172;47.530;10.256;2023-05-23T11:27:11;20.90;99.90
33881;DHT22;20172;47.530;10.256;2023-05-23T11:29:36;20.80;99.90
33881;DHT22;20172;47.530;10.256;2023-05-23T11:32:09;20.70;99.90
33881;DHT22;20172;47.530;10.256;2023-05-23T11:34:34;20.50;99.90
33881;DHT22;20172;47.530;10.256;2023-05-23T11:37:02;20.40;99.90
33881;DHT22;20172;47.530;10.256;2023-05-23T11:39:27;20.40;99.90
33881;DHT22;20172;47.530;10.256;2023-05-23T11:42:02;20.20;99.90
33881;DHT22;20172;47.530;10.256;2023-05-23T11:44:28;20.10;99.90
33881;DHT22;20172;47.530;10.256;2023-05-23T11:49:29;19.90;99.90
33881;DHT22;20172;47.530;10.256;2023-05-23T11:51:55;19.90;99.90
33881;DHT22;20172;47.530;10.256;2023-05-23T11:54:24;19.80;99.90
33881;DHT22;20172;47.530;10.256;2023-05-23T11:56:50;19.80;99.90
33881;DHT22;20172;47.530;10.256;2023-05-23T11:59:15;19.80;99.90
33881;DHT22;20172;47.530;10.256;2023-05-23T12:01:42;19.80;99.90
33881;DHT22;20172;47.530;10.256;2023-05-23T12:04:10;19.80;99.90
33881;DHT22;20172;47.530;10.256;2023-05-23T12:06:40;19.80;99.90
33881;DHT22;20172;47.530;10.256;2023-05-23T12:09:11;19.80;99.90
33881;DHT22;20172;47.530;10.256;2023-05-23T12:11:38;19.80;99.90
33881;DHT22;20172;47.530;10.256;2023-05-23T12:14:03;19.80;99.90
33881;DHT22;20172;47.530;10.256;2023-05-23T12:16:31;19.70;99.90
33881;DHT22;20172;47.530;10.256;2023-05-23T12:18:57;19.60;99.90
33881;DHT22;20172;47.530;10.256;2023-05-23T12:21:27;19.50;99.90
33881;DHT22;20172;47.530;10.256;2023-05-23T12:27:00;19.10;99.90
33881;DHT22;20172;47.530;10.256;2023-05-23T12:29:33;18.90;99.90
33881;DHT22;20172;47.530;10.256;2023-05-23T12:31:59;18.90;99.90
33881;DHT22;20172;47.530;10.256;2023-05-23T12:34:25;18.80;99.90
33881;DHT22;20172;47.530;10.256;2023-05-23T12:36:55;18.80;99.90
33881;DHT22;20172;47.530;10.256;2023-05-23T12:39:24;18.80;99.90
33881;DHT22;20172;47.530;10.256;2023-05-23T12:41:53;18.90;99.90
33881;DHT22;20172;47.530;10.256;2023-05-23T12:44:21;18.80;99.90
33881;DHT22;20172;47.530;10.256;2023-05-23T12:46:46;18.80;99.90
33881;DHT22;20172;47.530;10.256;2023-05-23T12:49:12;18.80;99.90
33881;DHT22;20172;47.530;10.256;2023-05-23T12:51:38;18.80;99.90
33881;DHT22;20172;47.530;10.256;2023-05-23T12:54:04;18.70;99.90
33881;DHT22;20172;47.530;10.256;2023-05-23T12:56:30;18.70;99.90
33881;DHT22;20172;47.530;10.256;2023-05-23T12:58:56;18.70;99.90
33881;DHT22;20172;47.530;10.256;2023-05-23T13:01:21;18.60;99.90
33881;DHT22;20172;47.530;10.256;2023-05-23T13:03:47;18.60;99.90
33881;DHT22;20172;47.530;10.256;2023-05-23T13:06:12;18.60;99.90
33881;DHT22;20172;47.530;10.256;2023-05-23T13:08:38;18.70;99.90
33881;DHT22;20172;47.530;10.256;2023-05-23T13:11:04;18.70;99.90
33881;DHT22;20172;47.530;10.256;2023-05-23T13:13:29;18.80;99.90
33881;DHT22;20172;47.530;10.256;2023-05-23T13:15:57;18.80;99.90
33881;DHT22;20172;47.530;10.256;2023-05-23T13:18:22;18.70;99.90
33881;DHT22;20172;47.530;10.256;2023-05-23T13:20:48;18.70;99.90
33881;DHT22;20172;47.530;10.256;2023-05-23T13:23:13;18.70;99.90
33881;DHT22;20172;47.530;10.256;2023-05-23T13:25:39;18.60;99.90
33881;DHT22;20172;47.530;10.256;2023-05-23T13:28:05;18.60;99.90
33881;DHT22;20172;47.530;10.256;2023-05-23T13:30:30;18.60;99.90
33881;DHT22;20172;47.530;10.256;2023-05-23T13:32:56;18.50;99.90
33881;DHT22;20172;47.530;10.256;2023-05-23T13:35:22;18.50;99.90
33881;DHT22;20172;47.530;10.256;2023-05-23T13:37:47;18.60;99.90
33881;DHT22;20172;47.530;10.256;2023-05-23T13:40:17;18.50;99.90
33881;DHT22;20172;47.530;10.256;2023-05-23T13:42:43;18.40;99.90
33881;DHT22;20172;47.530;10.256;2023-05-23T13:45:09;18.40;99.90
33881;DHT22;20172;47.530;10.256;2023-05-23T13:47:34;18.50;99.90
33881;DHT22;20172;47.530;10.256;2023-05-23T13:50:04;18.50;99.90
33881;DHT22;20172;47.530;10.256;2023-05-23T13:52:30;18.50;99.90
33881;DHT22;20172;47.530;10.256;2023-05-23T13:54:56;18.60;99.90
33881;DHT22;20172;47.530;10.256;2023-05-23T13:57:21;18.70;99.90
33881;DHT22;20172;47.530;10.256;2023-05-23T13:59:47;18.90;99.90
33881;DHT22;20172;47.530;10.256;2023-05-23T14:02:12;19.10;99.90
33881;DHT22;20172;47.530;10.256;2023-05-23T14:04:38;19.40;99.90
33881;DHT22;20172;47.530;10.256;2023-05-23T14:07:03;19.70;99.90
33881;DHT22;20172;47.530;10.256;2023-05-23T14:09:29;19.90;99.90
33881;DHT22;20172;47.530;10.256;2023-05-23T14:11:54;20.20;99.90
33881;DHT22;20172;47.530;10.256;2023-05-23T14:14:20;20.30;99.90
33881;DHT22;20172;47.530;10.256;2023-05-23T14:16:46;20.50;99.90
33881;DHT22;20172;47.530;10.256;2023-05-23T14:19:11;20.60;99.90
33881;DHT22;20172;47.530;10.256;2023-05-23T14:21:37;20.70;99.90
33881;DHT22;20172;47.530;10.256;2023-05-23T14:24:03;20.80;99.90
33881;DHT22;20172;47.530;10.256;2023-05-23T14:26:28;21.20;99.90
33881;DHT22;20172;47.530;10.256;2023-05-23T14:28:54;21.40;99.90
33881;DHT22;20172;47.530;10.256;2023-05-23T14:31:20;21.50;99.90
33881;DHT22;20172;47.530;10.256;2023-05-23T14:33:46;21.70;99.90
33881;DHT22;20172;47.530;10.256;2023-05-23T14:36:12;21.70;99.90
33881;DHT22;20172;47.530;10.256;2023-05-23T14:38:37;21.70;99.90
33881;DHT22;20172;47.530;10.256;2023-05-23T14:41:04;21.60;99.90
33881;DHT22;20172;47.530;10.256;2023-05-23T14:43:29;21.50;99.90
33881;DHT22;20172;47.530;10.256;2023-05-23T14:45:55;21.40;99.90
33881;DHT22;20172;47.530;10.256;2023-05-23T14:48:20;21.40;99.90
33881;DHT22;20172;47.530;10.256;2023-05-23T14:50:46;21.20;99.90
33881;DHT22;20172;47.530;10.256;2023-05-23T14:53:12;21.10;99.90
33881;DHT22;20172;47.530;10.256;2023-05-23T14:55:37;21.00;99.90
33881;DHT22;20172;47.530;10.256;2023-05-23T14:58:03;20.90;99.90
33881;DHT22;20172;47.530;10.256;2023-05-23T15:00:29;20.70;99.90
33881;DHT22;20172;47.530;10.256;2023-05-23T15:02:55;20.60;99.90
33881;DHT22;20172;47.530;10.256;2023-05-23T15:05:21;20.30;99.90
33881;DHT22;20172;47.530;10.256;2023-05-23T15:07:46;20.10;99.90
33881;DHT22;20172;47.530;10.256;2023-05-23T15:10:12;19.90;99.90
33881;DHT22;20172;47.530;10.256;2023-05-23T15:12:38;20.00;99.90
33881;DHT22;20172;47.530;10.256;2023-05-23T15:15:03;20.10;99.90
33881;DHT22;20172;47.530;10.256;2023-05-23T15:17:29;20.20;99.90
33881;DHT22;20172;47.530;10.256;2023-05-23T15:19:55;20.20;99.90
33881;DHT22;20172;47.530;10.256;2023-05-23T15:22:21;20.20;99.90
33881;DHT22;20172;47.530;10.256;2023-05-23T15:24:46;20.10;99.90
33881;DHT22;20172;47.530;10.256;2023-05-23T15:27:12;20.00;99.90
33881;DHT22;20172;47.530;10.256;2023-05-23T15:29:37;20.10;99.90
33881;DHT22;20172;47.530;10.256;2023-05-23T15:32:05;20.20;99.90
33881;DHT22;20172;47.530;10.256;2023-05-23T15:34:30;20.20;99.90
33881;DHT22;20172;47.530;10.256;2023-05-23T15:36:56;20.20;99.90
33881;DHT22;20172;47.530;10.256;2023-05-23T15:39:21;20.00;99.90
33881;DHT22;20172;47.530;10.256;2023-05-23T15:41:47;19.80;99.90
33881;DHT22;20172;47.530;10.256;2023-05-23T15:44:12;19.60;99.90
33881;DHT22;20172;47.530;10.256;2023-05-23T15:46:42;19.50;99.90
33881;DHT22;20172;47.530;10.256;2023-05-23T15:49:10;19.50;99.90